createdAt,value
2022-10-21T00:00:25.222Z,6.37
2022-10-21T00:01:26.644Z,5.67
2022-10-21T00:02:28.359Z,5.53
2022-10-21T00:03:29.881Z,5.87
2022-10-21T00:04:33.075Z,5.40
2022-10-21T00:05:34.510Z,5.53
2022-10-21T00:06:36.238Z,5.63
2022-10-21T00:07:38.147Z,5.80
2022-10-21T00:08:39.947Z,6.57
2022-10-21T00:09:41.727Z,6.57
2022-10-21T00:10:43.340Z,5.40
2022-10-21T00:11:44.817Z,6.27
2022-10-21T00:12:46.206Z,6.17
2022-10-21T00:13:47.693Z,7.20
2022-10-21T00:14:50.680Z,8.10
2022-10-21T00:16:01.129Z,7.97
2022-10-21T00:17:02.562Z,7.70
2022-10-21T00:18:04.055Z,9.23
2022-10-21T00:19:05.526Z,8.00
2022-10-21T00:20:09.663Z,7.10
2022-10-21T00:21:20.139Z,7.90
2022-10-21T00:22:21.534Z,6.77
2022-10-21T00:23:23.128Z,6.70
2022-10-21T00:24:24.532Z,7.47
2022-10-21T00:25:26.146Z,7.30
2022-10-21T00:26:27.775Z,8.03
2022-10-21T00:27:29.998Z,7.30
2022-10-21T00:28:31.865Z,7.90
2022-10-21T00:29:33.647Z,8.43
2022-10-21T00:30:35.190Z,9.80
2022-10-21T00:31:36.649Z,9.60
2022-10-21T00:32:38.650Z,9.53
2022-10-21T00:33:41.481Z,8.20
2022-10-21T00:34:43.351Z,8.20
2022-10-21T00:35:51.273Z,8.87
2022-10-21T00:36:52.697Z,9.87
2022-10-21T00:37:54.233Z,8.00
2022-10-21T00:38:56.971Z,8.67
2022-10-21T00:39:58.878Z,11.13
2022-10-21T00:41:01.016Z,7.53
2022-10-21T00:42:02.609Z,8.77
2022-10-21T00:43:04.009Z,8.90
2022-10-21T00:44:08.740Z,8.67
2022-10-21T00:45:18.395Z,8.57
2022-10-21T00:46:40.426Z,8.17
2022-10-21T00:48:57.529Z,8.37
2022-10-21T00:50:01.853Z,9.03
2022-10-21T00:51:10.553Z,7.20
2022-10-21T00:52:19.867Z,8.23
2022-10-21T00:53:22.476Z,7.80
2022-10-21T00:54:25.718Z,9.10
2022-10-21T00:55:32.646Z,7.93
2022-10-21T00:56:35.798Z,12.00
2022-10-21T00:57:38.162Z,9.07
2022-10-21T00:58:40.477Z,12.30
2022-10-21T00:59:49.065Z,9.20
2022-10-21T01:00:54.794Z,8.30
2022-10-21T01:01:56.506Z,9.37
2022-10-21T01:02:58.440Z,9.10
2022-10-21T01:04:01.571Z,11.17
2022-10-21T01:05:05.239Z,10.60
2022-10-21T01:06:09.277Z,9.20
2022-10-21T01:07:11.808Z,10.00
2022-10-21T01:08:13.569Z,8.97
2022-10-21T01:09:15.444Z,10.27
2022-10-21T01:10:18.103Z,9.90
2022-10-21T01:11:21.165Z,9.73
2022-10-21T01:12:44.321Z,8.73
2022-10-21T01:14:03.162Z,8.67
2022-10-21T01:15:36.543Z,10.07
2022-10-21T01:16:48.310Z,9.60
2022-10-21T01:18:00.230Z,9.13
2022-10-21T01:19:18.206Z,8.67
2022-10-21T01:20:45.980Z,8.00
2022-10-21T01:22:24.227Z,8.20
2022-10-21T01:23:38.695Z,9.60
2022-10-21T01:24:48.942Z,8.53
2022-10-21T01:26:17.156Z,7.73
2022-10-21T01:27:40.588Z,8.00
2022-10-21T01:29:12.361Z,7.90
2022-10-21T01:30:35.030Z,8.33
2022-10-21T01:31:55.169Z,8.07
2022-10-21T01:33:30.491Z,9.20
2022-10-21T01:34:43.220Z,7.77
2022-10-21T01:36:35.308Z,7.50
2022-10-21T01:37:40.007Z,9.17
2022-10-21T01:39:05.775Z,9.20
2022-10-21T01:40:19.898Z,7.80
2022-10-21T01:41:35.673Z,8.13
2022-10-21T01:42:48.489Z,8.27
2022-10-21T01:44:04.639Z,7.73
2022-10-21T01:45:20.361Z,8.50
2022-10-21T01:46:49.172Z,7.83
2022-10-21T01:47:56.808Z,8.20
2022-10-21T01:49:06.088Z,8.20
2022-10-21T01:50:39.390Z,7.23
2022-10-21T01:51:41.265Z,7.73
2022-10-21T01:52:48.264Z,7.97
2022-10-21T01:54:06.795Z,8.00
2022-10-21T01:55:15.912Z,7.20
2022-10-21T01:56:19.229Z,7.33
2022-10-21T01:57:24.328Z,8.10
2022-10-21T01:58:30.093Z,7.30
2022-10-21T01:59:32.608Z,7.00
2022-10-21T02:00:36.527Z,7.10
2022-10-21T02:01:39.698Z,7.00
2022-10-21T02:02:46.087Z,8.73
2022-10-21T02:03:53.144Z,7.07
2022-10-21T02:04:57.685Z,7.80
2022-10-21T02:06:00.096Z,6.60
2022-10-21T02:07:02.086Z,7.40
2022-10-21T02:08:04.344Z,7.20
2022-10-21T02:09:05.879Z,10.23
2022-10-21T02:10:07.906Z,7.10
2022-10-21T02:11:11.933Z,7.47
2022-10-21T02:12:14.622Z,7.10
2022-10-21T02:13:23.481Z,6.83
2022-10-21T02:14:45.863Z,7.07
2022-10-21T02:15:48.094Z,6.60
2022-10-21T02:16:51.110Z,6.63
2022-10-21T02:17:59.071Z,6.23
2022-10-21T02:19:01.513Z,6.80
2022-10-21T02:20:06.836Z,6.37
2022-10-21T02:21:14.586Z,7.17
2022-10-21T02:22:20.947Z,7.23
2022-10-21T02:23:33.776Z,7.47
2022-10-21T02:24:45.683Z,7.10
2022-10-21T02:25:50.125Z,9.00
2022-10-21T02:26:51.578Z,6.37
2022-10-21T02:27:54.236Z,6.53
2022-10-21T02:28:58.157Z,6.77
2022-10-21T02:30:01.251Z,6.50
2022-10-21T02:31:19.225Z,6.77
2022-10-21T02:32:42.237Z,6.70
2022-10-21T02:34:07.323Z,6.70
2022-10-21T02:35:30.384Z,6.30
2022-10-21T02:36:46.106Z,6.50
2022-10-21T02:38:02.633Z,7.70
2022-10-21T02:39:13.553Z,6.57
2022-10-21T02:40:30.616Z,7.10
2022-10-21T02:41:34.195Z,6.77
2022-10-21T02:42:43.392Z,7.10
2022-10-21T02:44:02.358Z,7.03
2022-10-21T02:45:04.616Z,6.50
2022-10-21T02:46:09.791Z,7.47
2022-10-21T02:48:18.014Z,6.23
2022-10-21T02:49:19.427Z,7.40
2022-10-21T02:50:20.853Z,7.47
2022-10-21T02:51:22.359Z,7.40
2022-10-21T02:52:23.956Z,7.40
2022-10-21T02:53:25.641Z,6.00
2022-10-21T02:54:27.042Z,6.80
2022-10-21T02:55:28.437Z,6.77
2022-10-21T02:57:36.937Z,6.27
2022-10-21T02:58:38.529Z,7.10
2022-10-21T02:59:39.906Z,6.93
2022-10-21T03:00:41.332Z,5.60
2022-10-21T03:01:42.761Z,6.17
2022-10-21T03:02:44.630Z,6.40
2022-10-21T03:03:46.385Z,7.53
2022-10-21T03:04:47.734Z,6.80
2022-10-21T03:05:49.402Z,6.60
2022-10-21T03:06:50.801Z,6.80
2022-10-21T03:07:52.162Z,6.83
2022-10-21T03:08:53.566Z,6.63
2022-10-21T03:09:54.974Z,8.20
2022-10-21T03:10:56.622Z,7.77
2022-10-21T03:11:58.046Z,6.83
2022-10-21T03:12:59.758Z,7.90
2022-10-21T03:14:01.761Z,6.40
2022-10-21T03:15:03.989Z,7.57
2022-10-21T03:16:06.076Z,7.47
2022-10-21T03:17:07.639Z,6.80
2022-10-21T03:18:09.237Z,6.67
2022-10-21T03:19:11.423Z,7.20
2022-10-21T03:20:12.858Z,7.00
2022-10-21T03:21:14.229Z,6.47
2022-10-21T03:22:15.599Z,6.97
2022-10-21T03:23:18.504Z,6.50
2022-10-21T03:24:28.515Z,6.33
2022-10-21T03:25:35.091Z,6.50
2022-10-21T03:26:37.031Z,6.63
2022-10-21T03:27:39.228Z,6.13
2022-10-21T03:28:40.844Z,6.93
2022-10-21T03:29:42.567Z,6.03
2022-10-21T03:30:44.287Z,6.20
2022-10-21T03:31:45.685Z,5.93
2022-10-21T03:32:47.024Z,6.73
2022-10-21T03:33:48.529Z,7.10
2022-10-21T03:34:49.893Z,6.23
2022-10-21T03:35:51.299Z,6.40
2022-10-21T03:36:52.699Z,7.50
2022-10-21T03:37:54.706Z,6.43
2022-10-21T03:38:56.159Z,6.40
2022-10-21T03:39:57.673Z,6.67
2022-10-21T03:40:59.377Z,7.80
2022-10-21T03:42:01.155Z,6.40
2022-10-21T03:43:02.549Z,6.70
2022-10-21T03:44:04.221Z,7.40
2022-10-21T03:45:06.012Z,7.23
2022-10-21T03:46:07.878Z,7.10
2022-10-21T03:47:09.273Z,6.97
2022-10-21T03:48:10.629Z,7.57
2022-10-21T03:49:17.073Z,6.70
2022-10-21T03:50:26.023Z,7.10
2022-10-21T03:51:28.392Z,7.30
2022-10-21T03:52:29.794Z,6.50
2022-10-21T03:53:42.808Z,7.27
2022-10-21T03:54:44.555Z,7.77
2022-10-21T03:55:46.028Z,7.73
2022-10-21T03:56:47.679Z,7.97
2022-10-21T03:57:49.289Z,8.60
2022-10-21T03:58:53.924Z,7.80
2022-10-21T03:59:57.734Z,7.50
2022-10-21T04:00:59.124Z,7.97
2022-10-21T04:02:00.748Z,7.90
2022-10-21T04:03:02.416Z,9.10
2022-10-21T04:04:03.979Z,6.77
2022-10-21T04:05:05.955Z,7.60
2022-10-21T04:06:07.703Z,7.50
2022-10-21T04:07:09.153Z,7.37
2022-10-21T04:08:10.574Z,10.27
2022-10-21T04:09:12.176Z,7.87
2022-10-21T04:10:13.738Z,7.63
2022-10-21T04:11:15.187Z,7.77
2022-10-21T04:12:16.593Z,6.87
2022-10-21T04:13:17.951Z,8.10
2022-10-21T04:14:20.008Z,7.50
2022-10-21T04:15:21.722Z,7.47
2022-10-21T04:16:24.011Z,8.10
2022-10-21T04:17:25.949Z,7.70
2022-10-21T04:18:27.531Z,9.63
2022-10-21T04:19:28.905Z,7.80
2022-10-21T04:20:30.253Z,8.07
2022-10-21T04:21:31.835Z,7.90
2022-10-21T04:22:33.669Z,7.43
2022-10-21T04:23:35.758Z,8.70
2022-10-21T04:24:37.311Z,8.33
2022-10-21T04:25:38.672Z,7.37
2022-10-21T04:26:42.504Z,7.77
2022-10-21T04:27:43.857Z,7.30
2022-10-21T04:28:45.222Z,7.23
2022-10-21T04:29:46.837Z,7.97
2022-10-21T04:30:50.282Z,7.60
2022-10-21T04:31:51.981Z,8.17
2022-10-21T04:32:53.365Z,7.60
2022-10-21T04:33:54.773Z,7.80
2022-10-21T04:34:56.429Z,7.87
2022-10-21T04:35:59.089Z,7.93
2022-10-21T04:37:04.095Z,8.23
2022-10-21T04:38:06.752Z,8.03
2022-10-21T04:39:08.149Z,7.87
2022-10-21T04:40:10.070Z,7.73
2022-10-21T04:41:11.660Z,7.37
2022-10-21T04:42:13.078Z,8.93
2022-10-21T04:43:14.860Z,8.80
2022-10-21T04:44:16.379Z,9.00
2022-10-21T04:45:18.484Z,7.93
2022-10-21T04:46:20.841Z,8.00
2022-10-21T04:47:22.188Z,7.83
2022-10-21T04:48:23.647Z,8.80
2022-10-21T04:49:25.163Z,7.73
2022-10-21T04:50:26.829Z,7.17
2022-10-21T04:51:28.369Z,8.57
2022-10-21T04:52:29.785Z,8.20
2022-10-21T04:53:31.224Z,8.30
2022-10-21T04:54:32.711Z,8.53
2022-10-21T04:55:34.363Z,7.93
2022-10-21T04:56:35.796Z,8.60
2022-10-21T04:57:37.568Z,9.33
2022-10-21T04:58:38.989Z,9.20
2022-10-21T04:59:40.419Z,8.87
2022-10-21T05:00:41.928Z,9.80
2022-10-21T05:01:43.381Z,8.63
2022-10-21T05:02:44.879Z,8.90
2022-10-21T05:03:46.296Z,9.00
2022-10-21T05:04:47.701Z,8.57
2022-10-21T05:05:50.592Z,8.60
2022-10-21T05:06:52.290Z,9.87
2022-10-21T05:07:53.756Z,9.97
2022-10-21T05:08:55.769Z,8.80
2022-10-21T05:09:57.186Z,8.10
2022-10-21T05:11:00.855Z,8.10
2022-10-21T05:12:02.444Z,8.87
2022-10-21T05:13:03.916Z,8.50
2022-10-21T05:14:05.604Z,8.30
2022-10-21T05:15:07.775Z,8.50
2022-10-21T05:16:09.151Z,8.70
2022-10-21T05:17:10.707Z,9.33
2022-10-21T05:18:12.236Z,8.27
2022-10-21T05:19:14.063Z,8.30
2022-10-21T05:20:15.701Z,8.53
2022-10-21T05:21:17.781Z,8.10
2022-10-21T05:22:19.208Z,8.70
2022-10-21T05:23:20.933Z,9.30
2022-10-21T05:24:22.370Z,8.03
2022-10-21T05:25:24.055Z,9.13
2022-10-21T05:26:25.498Z,8.60
2022-10-21T05:27:26.965Z,8.60
2022-10-21T05:28:28.593Z,8.90
2022-10-21T05:29:30.068Z,8.37
2022-10-21T05:30:31.827Z,8.17
2022-10-21T05:31:33.256Z,8.47
2022-10-21T05:32:34.633Z,8.30
2022-10-21T05:33:36.033Z,9.97
2022-10-21T05:34:37.460Z,8.40
2022-10-21T05:35:39.053Z,8.20
2022-10-21T05:36:40.435Z,8.10
2022-10-21T05:37:41.922Z,8.70
2022-10-21T05:38:43.685Z,8.70
2022-10-21T05:39:45.226Z,8.40
2022-10-21T05:40:47.845Z,8.10
2022-10-21T05:41:49.290Z,7.93
2022-10-21T05:42:50.653Z,9.10
2022-10-21T05:43:52.274Z,8.00
2022-10-21T05:44:53.981Z,8.77
2022-10-21T05:45:55.537Z,8.33
2022-10-21T05:46:56.999Z,8.80
2022-10-21T05:47:58.433Z,7.73
2022-10-21T05:48:59.861Z,8.57
2022-10-21T05:50:01.461Z,7.70
2022-10-21T05:51:03.936Z,7.63
2022-10-21T05:52:05.364Z,7.43
2022-10-21T05:53:06.998Z,8.30
2022-10-21T05:54:08.362Z,7.90
2022-10-21T05:55:10.309Z,7.87
2022-10-21T05:56:11.688Z,7.23
2022-10-21T05:57:13.110Z,7.70
2022-10-21T05:58:14.491Z,7.90
2022-10-21T05:59:15.945Z,7.90
2022-10-21T06:00:17.521Z,7.97
2022-10-21T06:01:19.026Z,8.20
2022-10-21T06:02:20.431Z,7.50
2022-10-21T06:03:23.234Z,7.43
2022-10-21T06:04:24.730Z,8.10
2022-10-21T06:05:26.181Z,7.83
2022-10-21T06:06:27.553Z,7.67
2022-10-21T06:07:28.973Z,7.67
2022-10-21T06:08:32.810Z,7.27
2022-10-21T06:09:34.436Z,7.87
2022-10-21T06:10:35.805Z,8.40
2022-10-21T06:11:37.399Z,8.00
2022-10-21T06:12:39.391Z,7.63
2022-10-21T06:13:41.266Z,7.43
2022-10-21T06:14:42.881Z,7.70
2022-10-21T06:15:48.745Z,7.80
2022-10-21T06:16:51.947Z,7.93
2022-10-21T06:17:53.631Z,7.87
2022-10-21T06:18:55.055Z,8.00
2022-10-21T06:19:56.504Z,8.20
2022-10-21T06:20:58.130Z,8.30
2022-10-21T06:21:59.640Z,7.97
2022-10-21T06:23:01.817Z,7.83
2022-10-21T06:24:03.283Z,7.57
2022-10-21T06:25:05.173Z,7.50
2022-10-21T06:26:12.500Z,7.57
2022-10-21T06:27:13.969Z,8.20
2022-10-21T06:28:15.393Z,7.17
2022-10-21T06:29:17.469Z,7.53
2022-10-21T06:30:19.089Z,7.50
2022-10-21T06:31:21.611Z,7.20
2022-10-21T06:32:22.999Z,6.93
2022-10-21T06:33:27.013Z,7.83
2022-10-21T06:34:28.873Z,7.30
2022-10-21T06:35:30.226Z,7.00
2022-10-21T06:36:31.619Z,7.23
2022-10-21T06:37:32.984Z,8.10
2022-10-21T06:38:34.592Z,8.27
2022-10-21T06:39:36.017Z,7.70
2022-10-21T06:40:37.481Z,7.40
2022-10-21T06:41:38.853Z,7.80
2022-10-21T06:42:40.616Z,7.50
2022-10-21T06:43:42.956Z,7.43
2022-10-21T06:44:44.620Z,7.50
2022-10-21T06:45:46.030Z,7.03
2022-10-21T06:46:47.402Z,7.30
2022-10-21T06:47:48.824Z,7.33
2022-10-21T06:48:50.314Z,8.17
2022-10-21T06:49:51.718Z,7.80
2022-10-21T06:51:03.859Z,7.23
2022-10-21T06:52:05.463Z,7.00
2022-10-21T06:53:07.092Z,6.87
2022-10-21T06:54:08.578Z,7.20
2022-10-21T06:55:10.293Z,7.40
2022-10-21T06:56:16.947Z,7.00
2022-10-21T06:57:18.340Z,7.00
2022-10-21T06:58:19.791Z,9.03
2022-10-21T06:59:21.255Z,7.30
2022-10-21T07:00:22.821Z,7.10
2022-10-21T07:01:34.301Z,7.77
2022-10-21T07:02:43.107Z,6.90
2022-10-21T07:03:44.621Z,6.70
2022-10-21T07:04:49.159Z,7.00
2022-10-21T07:05:57.454Z,7.63
2022-10-21T07:06:58.864Z,8.17
2022-10-21T07:08:00.660Z,7.60
2022-10-21T07:09:02.581Z,7.07
2022-10-21T07:10:04.370Z,6.87
2022-10-21T07:11:06.869Z,7.87
2022-10-21T07:12:08.530Z,7.83
2022-10-21T07:13:10.081Z,7.47
2022-10-21T07:14:14.496Z,8.03
2022-10-21T07:15:15.973Z,7.30
2022-10-21T07:16:19.170Z,8.00
2022-10-21T07:17:21.380Z,9.80
2022-10-21T07:18:22.850Z,7.70
2022-10-21T07:19:24.257Z,8.10
2022-10-21T07:20:25.834Z,7.77
2022-10-21T07:21:30.086Z,7.60
2022-10-21T07:22:31.941Z,8.57
2022-10-21T07:23:34.205Z,8.63
2022-10-21T07:24:36.101Z,7.80
2022-10-21T07:25:37.538Z,8.37
2022-10-21T07:26:40.087Z,7.67
2022-10-21T07:27:43.558Z,7.90
2022-10-21T07:28:48.090Z,8.10
2022-10-21T07:29:49.481Z,7.70
2022-10-21T07:30:50.907Z,7.53
2022-10-21T07:31:52.332Z,8.10
2022-10-21T07:32:53.708Z,7.23
2022-10-21T07:33:55.485Z,7.40
2022-10-21T07:34:57.100Z,7.17
2022-10-21T07:36:08.341Z,7.17
2022-10-21T07:37:10.018Z,8.07
2022-10-21T07:38:12.302Z,8.70
2022-10-21T07:39:16.615Z,9.17
2022-10-21T07:40:18.178Z,7.73
2022-10-21T07:41:29.399Z,8.03
2022-10-21T07:42:30.879Z,10.27
2022-10-21T07:43:32.925Z,9.63
2022-10-21T07:44:34.345Z,9.30
2022-10-21T07:45:42.226Z,8.97
2022-10-21T07:46:45.344Z,8.70
2022-10-21T07:47:47.144Z,8.40
2022-10-21T07:48:49.241Z,9.60
2022-10-21T07:49:50.768Z,9.10
2022-10-21T07:50:52.299Z,9.40
2022-10-21T07:51:54.276Z,8.50
2022-10-21T07:53:03.770Z,8.00
2022-10-21T07:54:08.438Z,8.60
2022-10-21T07:55:13.876Z,8.57
2022-10-21T07:56:18.552Z,8.50
2022-10-21T07:57:19.957Z,7.53
2022-10-21T07:58:21.320Z,7.77
2022-10-21T07:59:23.549Z,7.40
2022-10-21T08:00:25.101Z,7.23
2022-10-21T08:01:26.615Z,7.27
2022-10-21T08:02:28.363Z,6.40
2022-10-21T08:03:30.036Z,7.53
2022-10-21T08:04:33.293Z,7.40
2022-10-21T08:05:34.687Z,8.43
2022-10-21T08:06:36.783Z,7.17
2022-10-21T08:07:38.509Z,6.50
2022-10-21T08:08:40.549Z,7.17
2022-10-21T08:09:41.966Z,6.50
2022-10-21T08:10:43.901Z,6.50
2022-10-21T08:11:45.844Z,6.67
2022-10-21T08:12:47.537Z,6.37
2022-10-21T08:13:48.966Z,6.60
2022-10-21T08:14:50.767Z,6.33
2022-10-21T08:15:54.226Z,6.73
2022-10-21T08:16:55.680Z,6.70
2022-10-21T08:17:57.346Z,6.63
2022-10-21T08:19:02.864Z,6.70
2022-10-21T08:20:04.795Z,6.80
2022-10-21T08:21:06.434Z,7.10
2022-10-21T08:22:07.944Z,5.83
2022-10-21T08:23:10.892Z,6.17
2022-10-21T08:24:12.270Z,6.37
2022-10-21T08:25:16.719Z,6.50
2022-10-21T08:26:18.228Z,7.00
2022-10-21T08:27:19.567Z,6.53
2022-10-21T08:28:22.746Z,6.97
2022-10-21T08:29:24.425Z,6.70
2022-10-21T08:30:31.715Z,6.70
2022-10-21T08:31:33.107Z,7.30
2022-10-21T08:32:34.505Z,7.33
2022-10-21T08:33:37.420Z,6.83
2022-10-21T08:34:38.912Z,7.07
2022-10-21T08:35:41.029Z,6.43
2022-10-21T08:36:42.451Z,6.00
2022-10-21T08:37:48.765Z,5.93
2022-10-21T08:38:50.284Z,5.90
2022-10-21T08:39:51.659Z,5.43
2022-10-21T08:40:55.612Z,5.70
2022-10-21T08:42:08.094Z,5.60
2022-10-21T08:43:17.342Z,5.80
2022-10-21T08:44:37.808Z,5.53
2022-10-21T08:45:50.238Z,5.23
2022-10-21T08:47:18.635Z,5.30
2022-10-21T08:48:26.139Z,5.10
2022-10-21T08:49:50.510Z,5.60
2022-10-21T08:50:54.756Z,5.77
2022-10-21T08:52:04.459Z,5.60
2022-10-21T08:53:21.461Z,5.63
2022-10-21T08:54:52.801Z,5.33
2022-10-21T08:56:01.397Z,4.93
2022-10-21T08:57:12.521Z,4.23
2022-10-21T08:58:18.036Z,4.07
2022-10-21T08:59:22.732Z,5.10
2022-10-21T09:00:31.000Z,4.77
2022-10-21T09:01:55.302Z,4.43
2022-10-21T09:03:32.468Z,5.03
2022-10-21T09:04:49.080Z,4.40
2022-10-21T09:06:04.084Z,4.37
2022-10-21T09:07:39.389Z,3.80
2022-10-21T09:08:57.425Z,3.90
2022-10-21T09:10:15.145Z,3.47
2022-10-21T09:11:19.681Z,4.37
2022-10-21T09:12:35.670Z,3.23
2022-10-21T09:13:54.605Z,3.97
2022-10-21T09:15:27.493Z,3.60
2022-10-21T09:16:51.979Z,3.80
2022-10-21T09:18:17.573Z,4.00
2022-10-21T09:19:24.929Z,4.10
2022-10-21T09:20:55.933Z,4.07
2022-10-21T09:22:33.675Z,3.73
2022-10-21T09:23:36.787Z,3.70
2022-10-21T09:24:44.769Z,4.20
2022-10-21T09:26:30.484Z,3.73
2022-10-21T09:27:51.539Z,4.10
2022-10-21T09:28:54.211Z,3.70
2022-10-21T09:30:05.942Z,5.07
2022-10-21T09:31:16.883Z,3.83
2022-10-21T09:33:36.621Z,4.23
2022-10-21T09:34:49.647Z,4.03
2022-10-21T09:35:58.914Z,4.17
2022-10-21T09:37:02.497Z,3.73
2022-10-21T09:38:30.051Z,3.70
2022-10-21T09:39:42.050Z,3.70
2022-10-21T09:40:45.467Z,4.10
2022-10-21T09:41:55.446Z,4.23
2022-10-21T09:43:02.015Z,3.77
2022-10-21T09:44:03.581Z,4.07
2022-10-21T09:45:06.838Z,4.13
2022-10-21T09:46:12.430Z,4.13
2022-10-21T09:47:20.752Z,3.90
2022-10-21T09:48:46.102Z,4.20
2022-10-21T09:50:08.430Z,4.10
2022-10-21T09:51:32.085Z,4.60
2022-10-21T09:52:37.957Z,4.63
2022-10-21T09:53:53.947Z,4.23
2022-10-21T09:54:56.322Z,3.97
2022-10-21T09:56:04.504Z,4.50
2022-10-21T09:57:20.115Z,4.57
2022-10-21T09:58:43.511Z,4.77
2022-10-21T09:59:56.471Z,4.70
2022-10-21T10:00:58.788Z,5.17
2022-10-21T10:02:11.245Z,5.80
2022-10-21T10:03:13.509Z,5.70
2022-10-21T10:04:35.941Z,8.20
2022-10-21T10:05:49.443Z,6.00
2022-10-21T10:06:51.135Z,5.70
2022-10-21T10:07:52.601Z,6.17
2022-10-21T10:09:37.821Z,7.70
2022-10-21T10:10:39.264Z,6.80
2022-10-21T10:12:00.346Z,7.00
2022-10-21T10:13:01.818Z,7.27
2022-10-21T10:14:23.071Z,7.30
2022-10-21T10:15:36.047Z,6.83
2022-10-21T10:16:37.500Z,7.43
2022-10-21T10:17:39.781Z,6.47
2022-10-21T10:18:43.111Z,7.10
2022-10-21T10:20:04.826Z,6.60
2022-10-21T10:21:14.278Z,7.60
2022-10-21T10:22:16.780Z,6.90
2022-10-21T10:23:19.303Z,7.17
2022-10-21T10:24:21.940Z,6.90
2022-10-21T10:25:26.323Z,7.13
2022-10-21T10:26:33.824Z,6.53
2022-10-21T10:27:36.225Z,7.30
2022-10-21T10:28:37.932Z,7.50
2022-10-21T10:29:42.033Z,6.97
2022-10-21T10:30:43.357Z,7.43
2022-10-21T10:31:50.925Z,6.23
2022-10-21T10:32:55.955Z,7.80
2022-10-21T10:34:04.073Z,6.93
2022-10-21T10:35:15.289Z,7.60
2022-10-21T10:36:36.310Z,7.17
2022-10-21T10:37:38.356Z,7.50
2022-10-21T10:38:53.437Z,6.53
2022-10-21T10:40:00.642Z,7.67
2022-10-21T10:41:09.243Z,6.93
2022-10-21T10:42:15.150Z,6.87
2022-10-21T10:43:32.418Z,6.63
2022-10-21T10:44:42.232Z,7.13
2022-10-21T10:45:54.892Z,7.03
2022-10-21T10:46:58.720Z,7.07
2022-10-21T10:48:05.810Z,7.73
2022-10-21T10:49:22.905Z,7.47
2022-10-21T10:50:47.445Z,7.43
2022-10-21T10:52:12.235Z,7.60
2022-10-21T10:53:30.559Z,7.40
2022-10-21T10:54:32.047Z,8.20
2022-10-21T10:55:34.675Z,7.83
2022-10-21T10:56:48.574Z,7.57
2022-10-21T10:58:13.499Z,7.03
2022-10-21T10:59:43.617Z,6.67
2022-10-21T11:00:48.175Z,6.40
2022-10-21T11:02:07.454Z,6.70
2022-10-21T11:03:14.541Z,6.60
2022-10-21T11:04:44.715Z,7.00
2022-10-21T11:05:53.467Z,6.10
2022-10-21T11:07:03.074Z,6.30
2022-10-21T11:08:34.387Z,6.37
2022-10-21T11:09:36.769Z,6.03
2022-10-21T11:10:50.127Z,6.00
2022-10-21T11:11:55.774Z,6.10
2022-10-21T11:12:58.240Z,6.67
2022-10-21T11:15:13.798Z,6.73
2022-10-21T11:16:59.020Z,6.87
2022-10-21T11:18:30.419Z,6.30
2022-10-21T11:19:46.075Z,5.97
2022-10-21T11:21:15.252Z,6.23
2022-10-21T11:22:44.596Z,6.33
2022-10-21T11:24:02.439Z,5.80
2022-10-21T11:25:24.146Z,6.10
2022-10-21T11:27:07.473Z,5.90
2022-10-21T11:28:22.585Z,6.13
2022-10-21T11:29:35.717Z,6.50
2022-10-21T11:31:01.107Z,6.00
2022-10-21T11:32:44.903Z,5.67
2022-10-21T11:34:19.969Z,5.27
2022-10-21T11:35:26.981Z,4.70
2022-10-21T11:36:47.187Z,4.53
2022-10-21T11:38:30.169Z,4.57
2022-10-21T11:39:37.494Z,4.40
2022-10-21T11:41:11.334Z,4.50
2022-10-21T11:42:16.369Z,3.87
2022-10-21T11:43:23.616Z,4.10
2022-10-21T11:44:40.738Z,4.70
2022-10-21T11:45:57.536Z,4.07
2022-10-21T11:47:42.170Z,4.00
2022-10-21T11:49:13.603Z,3.83
2022-10-21T11:50:44.431Z,4.23
2022-10-21T11:52:14.178Z,4.80
2022-10-21T11:53:51.127Z,5.07
2022-10-21T11:55:09.476Z,5.70
2022-10-21T11:56:32.834Z,5.43
2022-10-21T11:57:38.991Z,5.87
2022-10-21T11:58:53.662Z,5.77
2022-10-21T12:00:04.811Z,6.40
2022-10-21T12:01:24.123Z,6.50
2022-10-21T12:02:29.836Z,6.47
2022-10-21T12:03:39.950Z,6.90
2022-10-21T12:05:32.615Z,6.67
2022-10-21T12:06:57.960Z,6.40
2022-10-21T12:08:20.878Z,6.80
2022-10-21T12:09:34.292Z,6.80
2022-10-21T12:10:53.072Z,6.47
2022-10-21T12:12:11.935Z,6.33
2022-10-21T12:13:24.316Z,7.10
2022-10-21T12:14:31.666Z,6.97
2022-10-21T12:15:41.926Z,7.00
2022-10-21T12:16:45.301Z,6.97
2022-10-21T12:17:48.898Z,6.53
2022-10-21T12:18:59.256Z,6.80
2022-10-21T12:20:06.413Z,7.57
2022-10-21T12:21:15.852Z,7.80
2022-10-21T12:22:17.464Z,7.17
2022-10-21T12:23:29.072Z,7.70
2022-10-21T12:24:30.797Z,6.87
2022-10-21T12:25:38.273Z,7.20
2022-10-21T12:27:05.099Z,6.87
2022-10-21T12:28:16.237Z,6.83
2022-10-21T12:29:45.562Z,6.73
2022-10-21T12:31:28.468Z,7.30
2022-10-21T12:32:43.878Z,7.63
2022-10-21T12:33:47.856Z,7.00
2022-10-21T12:34:49.440Z,7.87
2022-10-21T12:36:05.524Z,6.60
2022-10-21T12:37:42.129Z,7.80
2022-10-21T12:38:48.494Z,7.60
2022-10-21T12:40:08.168Z,7.20
2022-10-21T12:41:24.558Z,7.20
2022-10-21T12:42:29.009Z,7.00
2022-10-21T12:43:30.952Z,7.30
2022-10-21T12:44:33.517Z,6.87
2022-10-21T12:45:37.958Z,6.70
2022-10-21T12:46:45.458Z,7.40
2022-10-21T12:47:47.048Z,7.40
2022-10-21T12:48:49.623Z,7.23
2022-10-21T12:50:24.216Z,7.37
2022-10-21T12:51:32.523Z,6.77
2022-10-21T12:52:38.335Z,6.30
2022-10-21T12:54:10.191Z,7.07
2022-10-21T12:55:27.129Z,6.20
2022-10-21T12:56:42.198Z,5.90
2022-10-21T12:57:43.984Z,6.67
2022-10-21T12:58:46.099Z,6.83
2022-10-21T12:59:47.543Z,8.30
2022-10-21T13:00:48.932Z,7.80
2022-10-21T13:02:05.452Z,7.40
2022-10-21T13:03:12.218Z,7.37
2022-10-21T13:04:31.742Z,7.13
2022-10-21T13:05:39.006Z,7.67
2022-10-21T13:06:52.107Z,7.47
2022-10-21T13:08:24.328Z,7.77
2022-10-21T13:09:35.931Z,8.37
2022-10-21T13:10:37.505Z,8.20
2022-10-21T13:11:40.034Z,8.13
2022-10-21T13:12:41.675Z,7.87
2022-10-21T13:13:47.986Z,7.93
2022-10-21T13:14:50.545Z,8.27
2022-10-21T13:15:51.925Z,8.27
2022-10-21T13:16:53.325Z,7.63
2022-10-21T13:17:57.589Z,7.60
2022-10-21T13:19:03.608Z,6.87
2022-10-21T13:20:20.093Z,4.40
2022-10-21T13:21:25.205Z,5.10
2022-10-21T13:22:41.802Z,4.50
2022-10-21T13:23:44.395Z,4.33
2022-10-21T13:24:46.968Z,5.13
2022-10-21T13:26:11.386Z,4.80
2022-10-21T13:28:39.341Z,4.50
2022-10-21T13:29:45.068Z,4.53
2022-10-21T13:30:49.049Z,4.73
2022-10-21T13:32:19.411Z,4.60
2022-10-21T13:33:27.227Z,4.43
2022-10-21T13:34:30.022Z,3.80
2022-10-21T13:35:47.506Z,4.37
2022-10-21T13:36:52.748Z,5.90
2022-10-21T13:37:59.905Z,5.23
2022-10-21T13:39:06.444Z,5.17
2022-10-21T13:40:15.854Z,4.97
2022-10-21T13:41:26.899Z,4.30
2022-10-21T13:42:40.188Z,4.57
2022-10-21T13:43:59.845Z,4.40
2022-10-21T13:45:22.073Z,4.20
2022-10-21T13:46:31.352Z,4.50
2022-10-21T13:47:35.019Z,4.57
2022-10-21T13:48:41.348Z,4.30
2022-10-21T13:49:50.983Z,4.10
2022-10-21T13:50:53.429Z,4.13
2022-10-21T13:51:55.151Z,4.03
2022-10-21T13:52:59.613Z,3.80
2022-10-21T13:54:11.795Z,3.83
2022-10-21T13:55:24.649Z,3.67
2022-10-21T13:56:30.802Z,3.30
2022-10-21T13:57:35.470Z,2.97
2022-10-21T13:58:39.472Z,3.10
2022-10-21T13:59:40.997Z,2.93
2022-10-21T14:00:42.733Z,2.97
2022-10-21T14:01:49.633Z,3.73
2022-10-21T14:02:55.174Z,3.53
2022-10-21T14:04:13.556Z,2.80
2022-10-21T14:05:36.468Z,3.00
2022-10-21T14:06:59.517Z,2.70
2022-10-21T14:08:01.221Z,2.90
2022-10-21T14:09:07.921Z,3.70
2022-10-21T14:10:15.594Z,2.63
2022-10-21T14:11:36.368Z,4.03
2022-10-21T14:12:43.979Z,3.20
2022-10-21T14:13:46.754Z,2.90
2022-10-21T14:14:48.354Z,2.70
2022-10-21T14:15:51.229Z,3.20
2022-10-21T14:17:15.719Z,3.37
2022-10-21T14:18:37.296Z,4.73
2022-10-21T14:19:39.103Z,3.20
2022-10-21T14:20:41.063Z,3.60
2022-10-21T14:21:46.148Z,2.73
2022-10-21T14:22:49.776Z,2.80
2022-10-21T14:23:53.036Z,2.73
2022-10-21T14:24:57.772Z,3.70
2022-10-21T14:26:06.972Z,3.10
2022-10-21T14:27:16.947Z,2.80
2022-10-21T14:28:20.833Z,3.50
2022-10-21T14:29:25.896Z,2.70
2022-10-21T14:30:29.954Z,2.90
2022-10-21T14:31:31.451Z,2.63
2022-10-21T14:32:33.730Z,2.70
2022-10-21T14:33:37.061Z,2.70
2022-10-21T14:35:04.206Z,2.50
2022-10-21T14:36:15.116Z,2.60
2022-10-21T14:37:20.768Z,2.60
2022-10-21T14:38:29.346Z,2.90
2022-10-21T14:39:31.303Z,2.57
2022-10-21T14:40:39.568Z,2.60
2022-10-21T14:41:45.599Z,3.07
2022-10-21T14:42:52.388Z,2.93
2022-10-21T14:43:57.320Z,2.77
2022-10-21T14:45:03.805Z,3.00
2022-10-21T14:46:08.123Z,2.70
2022-10-21T14:47:22.696Z,3.40
2022-10-21T14:48:55.668Z,3.97
2022-10-21T14:50:00.688Z,4.03
2022-10-21T14:51:07.622Z,3.30
2022-10-21T14:52:25.806Z,3.93
2022-10-21T14:53:33.289Z,3.30
2022-10-21T14:54:43.034Z,3.77
2022-10-21T14:55:45.851Z,3.40
2022-10-21T14:56:47.446Z,2.90
2022-10-21T14:57:53.162Z,3.63
2022-10-21T14:58:58.737Z,3.83
2022-10-21T15:00:01.112Z,4.33
2022-10-21T15:01:11.279Z,3.40
2022-10-21T15:02:26.870Z,3.70
2022-10-21T15:03:43.536Z,3.87
2022-10-21T15:04:56.055Z,4.47